createdAt,value
2019-04-11T00:01:44.965Z,38.69
2019-04-11T00:06:41.263Z,38.73
2019-04-11T00:11:44.211Z,38.77
2019-04-11T00:16:46.045Z,38.83
2019-04-11T00:21:48.817Z,38.99
2019-04-11T00:26:50.785Z,39.05
2019-04-11T00:31:52.795Z,39.34
2019-04-11T00:36:54.888Z,39.39
2019-04-11T00:41:56.634Z,39.51
2019-04-11T00:46:58.488Z,39.49
2019-04-11T00:52:00.412Z,39.46
2019-04-11T00:57:01.968Z,39.57
2019-04-11T01:02:05.144Z,39.72
2019-04-11T01:07:06.964Z,39.74
2019-04-11T01:12:08.603Z,39.86
2019-04-11T01:17:10.146Z,40.01
2019-04-11T01:22:11.925Z,40.05
2019-04-11T01:27:13.944Z,40.82
2019-04-11T01:32:16.030Z,40.96
2019-04-11T01:37:17.710Z,40.65
2019-04-11T01:42:19.521Z,40.30
2019-04-11T01:47:39.680Z,40.19
2019-04-11T01:52:42.427Z,40.27
2019-04-11T01:57:44.708Z,40.46
2019-04-11T02:02:52.826Z,40.43
2019-04-11T02:07:55.305Z,40.32
2019-04-11T02:12:57.450Z,40.45
2019-04-11T02:17:59.296Z,40.48
2019-04-11T02:23:09.507Z,40.70
2019-04-11T02:28:12.928Z,40.89
2019-04-11T02:33:16.362Z,41.04
2019-04-11T02:38:19.001Z,41.11
2019-04-11T02:43:22.748Z,41.17
2019-04-11T02:48:24.627Z,41.17
2019-04-11T02:53:28.162Z,41.08
2019-04-11T02:58:31.842Z,41.15
2019-04-11T03:03:34.224Z,41.23
2019-04-11T03:08:36.659Z,41.34
2019-04-11T03:13:39.799Z,41.36
2019-04-11T03:18:59.442Z,41.49
2019-04-11T03:23:46.683Z,41.52
2019-04-11T03:28:50.278Z,41.74
2019-04-11T03:34:42.462Z,42.29
2019-04-11T03:39:14.955Z,42.63
2019-04-11T03:44:09.592Z,41.97
2019-04-11T03:49:14.777Z,41.96
2019-04-11T03:54:07.556Z,42.03
2019-04-11T03:59:12.454Z,42.03
2019-04-11T04:04:15.494Z,42.21
2019-04-11T04:09:19.382Z,42.31
2019-04-11T04:14:41.022Z,42.43
2019-04-11T04:19:59.551Z,42.64
2019-04-11T04:25:03.742Z,42.84
2019-04-11T04:30:06.060Z,42.89
2019-04-11T04:35:12.788Z,43.00
2019-04-11T04:40:28.336Z,43.01
2019-04-11T04:45:16.298Z,43.09
2019-04-11T04:50:19.781Z,43.05
2019-04-11T04:55:23.383Z,43.13
2019-04-11T05:00:27.191Z,43.28
2019-04-11T05:05:30.803Z,43.26
2019-04-11T05:10:32.791Z,43.21
2019-04-11T05:15:34.603Z,43.15
2019-04-11T05:20:36.424Z,43.03
2019-04-11T05:25:39.070Z,43.06
2019-04-11T05:30:41.902Z,43.00
2019-04-11T05:35:43.818Z,43.03
2019-04-11T05:40:46.127Z,43.07
2019-04-11T05:45:48.487Z,43.17
2019-04-11T05:50:53.053Z,43.13
2019-04-11T05:55:55.534Z,43.20
2019-04-11T06:01:01.377Z,43.46
2019-04-11T06:06:24.892Z,43.59
2019-04-11T06:11:35.586Z,43.47
2019-04-11T06:16:43.593Z,43.32
2019-04-11T06:21:47.014Z,43.32
2019-04-11T06:27:15.342Z,43.82
2019-04-11T06:32:40.272Z,43.82
2019-04-11T06:38:02.666Z,43.71
2019-04-11T06:43:18.597Z,43.52
2019-04-11T06:48:45.637Z,43.79
2019-04-11T06:54:06.832Z,44.03
2019-04-11T06:59:12.453Z,43.91
2019-04-11T07:04:19.762Z,43.62
2019-04-11T07:09:39.457Z,43.85
2019-04-11T07:14:48.611Z,43.96
2019-04-11T07:20:06.763Z,43.74
2019-04-11T07:25:33.426Z,43.72
2019-04-11T07:30:53.862Z,43.80
2019-04-11T07:36:14.660Z,43.80
2019-04-11T07:41:34.330Z,43.80
2019-04-11T07:46:44.621Z,43.95
2019-04-11T07:51:53.564Z,44.05
2019-04-11T07:57:04.113Z,43.95
2019-04-11T08:02:24.500Z,43.87
2019-04-11T08:07:44.844Z,43.72
2019-04-11T08:12:47.866Z,43.77
2019-04-11T08:17:50.122Z,43.87
2019-04-11T08:22:57.224Z,43.88
2019-04-11T08:28:04.127Z,43.75
2019-04-11T08:33:04.607Z,43.70
2019-04-11T08:38:10.130Z,43.66
2019-04-11T08:43:15.636Z,43.50
2019-04-11T08:48:17.506Z,43.44
2019-04-11T08:53:33.016Z,43.59
2019-04-11T08:59:06.068Z,43.71
2019-04-11T09:04:21.908Z,43.60
2019-04-11T09:09:49.609Z,43.42
2019-04-11T09:15:08.598Z,43.49
2019-04-11T09:20:29.781Z,43.49
2019-04-11T09:25:52.958Z,43.27
2019-04-11T09:31:06.352Z,43.27
2019-04-11T09:36:26.609Z,43.31
2019-04-11T09:41:50.474Z,43.17
2019-04-11T09:47:11.203Z,43.24
2019-04-11T09:52:23.494Z,43.39
2019-04-11T09:57:34.740Z,43.32
2019-04-11T10:03:02.254Z,43.21
2019-04-11T10:08:22.471Z,42.95
2019-04-11T10:13:51.580Z,42.89
2019-04-11T10:19:11.716Z,42.98
2019-04-11T10:24:36.748Z,43.01
2019-04-11T10:29:56.814Z,43.04
2019-04-11T10:35:18.489Z,42.94
2019-04-11T10:40:44.188Z,42.96
2019-04-11T10:46:03.921Z,42.77
2019-04-11T10:51:20.617Z,42.62
2019-04-11T10:56:30.876Z,42.44
2019-04-11T11:01:58.377Z,42.31
2019-04-11T11:07:04.475Z,42.42
2019-04-11T11:12:32.861Z,42.70
2019-04-11T11:18:22.293Z,42.93
2019-04-11T11:23:13.768Z,42.87
2019-04-11T11:28:17.823Z,42.85
2019-04-11T11:33:22.200Z,42.74
2019-04-11T11:38:26.061Z,42.48
2019-04-11T11:43:30.917Z,42.15
2019-04-11T11:48:35.678Z,42.28
2019-04-11T11:53:46.943Z,42.22
2019-04-11T11:59:03.245Z,42.02
2019-04-11T12:04:23.874Z,41.94
2019-04-11T12:09:59.191Z,41.82
2019-04-11T12:15:22.049Z,41.80
2019-04-11T12:20:27.670Z,41.72
2019-04-11T12:25:33.941Z,41.63
2019-04-11T12:30:41.962Z,41.51
2019-04-11T12:36:03.554Z,41.39
2019-04-11T12:41:20.452Z,41.46
2019-04-11T12:46:40.411Z,41.59
2019-04-11T12:52:10.501Z,41.45
2019-04-11T12:57:31.719Z,41.42
2019-04-11T13:02:52.986Z,41.39
2019-04-11T13:08:13.343Z,41.28
2019-04-11T13:13:31.817Z,41.31
2019-04-11T13:18:55.302Z,41.46
2019-04-11T13:24:19.368Z,41.24
2019-04-11T13:29:37.851Z,41.31
2019-04-11T13:34:40.464Z,41.40
2019-04-11T13:39:43.477Z,41.27
2019-04-11T13:44:45.044Z,41.18
2019-04-11T13:49:51.925Z,41.44
2019-04-11T13:55:11.596Z,41.52
2019-04-11T14:00:32.447Z,41.49
2019-04-11T14:05:36.275Z,41.33
2019-04-11T14:10:38.164Z,41.21
2019-04-11T14:15:41.313Z,41.18
2019-04-11T14:20:45.803Z,41.12
2019-04-11T14:26:01.893Z,41.04
2019-04-11T14:31:41.025Z,41.05
2019-04-11T14:36:54.712Z,41.21
2019-04-11T14:42:24.975Z,41.37
2019-04-11T14:47:46.384Z,41.30
2019-04-11T14:53:20.005Z,41.29
2019-04-11T14:58:38.280Z,41.42
2019-04-11T15:03:53.723Z,41.24
2019-04-11T15:09:24.235Z,41.10
2019-04-11T15:14:47.522Z,41.09
2019-04-11T15:19:51.985Z,41.04
2019-04-11T15:24:57.300Z,40.98
2019-04-11T15:30:00.302Z,41.05
2019-04-11T15:35:05.168Z,41.14
2019-04-11T15:40:19.858Z,41.20
2019-04-11T15:45:30.000Z,41.20
2019-04-11T15:50:51.269Z,41.26
2019-04-11T15:56:30.690Z,41.40
2019-04-11T16:02:03.995Z,41.14
2019-04-11T16:07:31.252Z,40.92
2019-04-11T16:12:40.625Z,40.93
2019-04-11T16:18:00.249Z,40.86
2019-04-11T16:23:18.825Z,40.82
2019-04-11T16:28:55.877Z,41.01
2019-04-11T16:34:08.236Z,41.01
2019-04-11T16:39:44.920Z,40.95
2019-04-11T16:45:18.332Z,40.90
2019-04-11T16:50:20.013Z,40.92
2019-04-11T16:55:21.662Z,40.88
2019-04-11T17:00:23.252Z,40.95
2019-04-11T17:05:26.824Z,40.87
2019-04-11T17:10:46.781Z,40.94
2019-04-11T17:15:48.362Z,40.81
2019-04-11T17:20:49.977Z,40.73
2019-04-11T17:25:54.623Z,40.71
2019-04-11T17:30:56.263Z,40.60
2019-04-11T17:36:02.028Z,40.51
2019-04-11T17:41:01.340Z,40.51
2019-04-11T17:46:03.064Z,40.57
2019-04-11T17:51:05.656Z,40.74
2019-04-11T17:56:07.469Z,40.70
2019-04-11T18:01:09.207Z,40.79
2019-04-11T18:06:10.800Z,40.72
2019-04-11T18:11:12.387Z,40.63
2019-04-11T18:16:14.071Z,40.60
2019-04-11T18:21:15.671Z,40.74
2019-04-11T18:26:19.098Z,40.79
2019-04-11T18:31:24.765Z,40.74
2019-04-11T18:36:24.498Z,40.78
2019-04-11T18:41:26.303Z,40.83
2019-04-11T18:46:27.962Z,40.91
2019-04-11T18:51:30.516Z,40.96
2019-04-11T18:56:32.163Z,40.90
2019-04-11T19:01:33.883Z,40.96
2019-04-11T19:06:35.551Z,41.00
2019-04-11T19:11:37.199Z,40.95
2019-04-11T19:16:38.878Z,41.10
2019-04-11T19:21:40.625Z,41.37
2019-04-11T19:26:46.101Z,41.52
2019-04-11T19:31:45.702Z,41.49
2019-04-11T19:36:47.281Z,41.29
2019-04-11T19:41:48.991Z,41.15
2019-04-11T19:46:51.731Z,41.24
2019-04-11T19:51:53.466Z,41.16
2019-04-11T19:57:01.501Z,41.18
2019-04-11T20:02:03.442Z,41.23
2019-04-11T20:07:05.077Z,41.26
2019-04-11T20:12:06.758Z,41.15
2019-04-11T20:17:09.246Z,41.18
2019-04-11T20:22:10.942Z,41.02
2019-04-11T20:27:12.500Z,41.01
2019-04-11T20:32:14.125Z,41.00
2019-04-11T20:37:17.730Z,41.09
2019-04-11T20:42:19.296Z,40.94
2019-04-11T20:47:20.837Z,41.05
2019-04-11T20:52:22.385Z,41.02
2019-04-11T20:57:25.940Z,40.99
2019-04-11T21:02:29.085Z,40.87
2019-04-11T21:07:31.964Z,41.18
2019-04-11T21:12:37.021Z,41.19
2019-04-11T21:17:37.658Z,40.92
2019-04-11T21:22:39.231Z,41.02
2019-04-11T21:27:40.775Z,40.89
2019-04-11T21:32:42.334Z,40.89
2019-04-11T21:37:43.983Z,40.88
2019-04-11T21:42:45.544Z,40.89
2019-04-11T21:47:47.106Z,40.75
2019-04-11T21:52:48.677Z,40.88
2019-04-11T21:57:50.263Z,40.68
2019-04-11T22:02:54.418Z,40.78
2019-04-11T22:07:55.717Z,40.93
2019-04-11T22:12:57.403Z,40.97
2019-04-11T22:17:59.056Z,40.93
2019-04-11T22:23:00.647Z,41.06
2019-04-11T22:28:02.358Z,41.07
2019-04-11T22:33:09.936Z,41.07
2019-04-11T22:38:11.499Z,41.18
2019-04-11T22:43:24.071Z,41.33
2019-04-11T22:48:16.675Z,41.68
2019-04-11T22:53:18.245Z,41.76
2019-04-11T22:58:19.902Z,41.65
2019-04-11T23:03:41.129Z,41.59
2019-04-11T23:08:42.714Z,41.57
2019-04-11T23:13:45.719Z,41.64
2019-04-11T23:18:47.752Z,41.74
2019-04-11T23:23:49.320Z,41.85
2019-04-11T23:28:50.885Z,42.05
2019-04-11T23:33:52.676Z,42.13
2019-04-11T23:38:54.403Z,42.08
2019-04-11T23:43:55.984Z,42.16
2019-04-11T23:48:57.676Z,42.54
2019-04-11T23:53:59.893Z,42.76
2019-04-11T23:59:02.604Z,42.75
